航空気象通報

ウインドサーファーのための航空気象通報による風予報です。

12/31-1/1の航空気象通報(国内、海外)

2008年12月31日 22時28分24秒 | TAF
羽田空港
TAF RJTT 310841Z 3109/0112 34012KT 9999 FEW030
日本時間31日18時-1日21時:340度から12ノットの風


那覇空港
TAF AMD ROAH 310903Z 3109/0112 35020KT 9999 FEW030 BKN045
TEMPO 3109/3118 34020G30KT
日本時間31日18時-1日21時:350度から20ノットの風
但し、31日18時-1日03時の間:一時、340度から20ノット、突風30ノット


マウイのカフルイ空港
PHOG 311139Z 3112/0112 08006KT P6SM VCSH SCT040 BKN100
TEMPO 3112/3115 6SM SHRA SCT020 BKN040
FM312000 04011KT P6SM SCT030 BKN050
FM010600 12005KT P6SM SCT050
ハワイ時間31日02-10時:080度から6ノットの風
10-20時:040度から11ノットの風
、但し、30日02-04時の間:一時、
20時-1日02時:120度から5ノットの風


サイパン空港
PGSN 311126Z 3112/0112 09011KT P6SM VCSH SCT019 SCT050
TEMPO 3112/3116 -SHRA SCT018 BKN029
マリアナ時間31日22時-1日22時:090度から11ノットの風
、但し、31日22時-1日02時の間:一時、
コメント

12/30-31の航空気象通報(国内、海外)

2008年12月30日 18時22分20秒 | TAF
羽田空港
TAF RJTT 300841Z 3009/3112 18005KT 9999 FEW030
BECMG 3010/3012 26008KT
BECMG 3016/3018 32016KT
TEMPO 3018/3024 33020G30KT
日本時間30日18-19時:180度から5ノットの風
19-21時:風が変化
21時-31日01時:260度から8ノットの風
01-03時:風が変化
03-21時:320度から16ノットの風
但し、31日03-09時の間:一時、330度から20ノット、突風30ノット


那覇空港
TAF ROAH 300838Z 3009/3112 01018KT 9999 FEW020 SCT025 BKN040
TEMPO 3009/3018 01020G30KT
日本時間30日18時-31日21時:010度から18ノットの風
但し、30日18時-31日03時の間:一時、010度から20ノット、突風30ノット


マウイのカフルイ空港
PHOG 301132Z 3012/3112 05010KT P6SM SCT040 BKN250
TEMPO 3012/3014 -SHRA BKN040
FM301900 06012G22KT P6SM SCT040 SCT070
FM310500 06010KT P6SM FEW040
ハワイ時間30日02-09時:050度から10ノットの風
、但し、30日02-04時の間:一時、
09-19時:060度から12ノット、突風22ノット
19時-31日02時:060度から10ノットの風


サイパン空港
PGSN 301120Z 3012/3112 07012G18KT P6SM SCT020
マリアナ時間30日22時-31日22時:070度から12ノット、突風18ノット

コメント

12/29-30の航空気象通報(国内、海外)

2008年12月29日 19時06分20秒 | TAF
羽田空港
TAF RJTT 290841Z 2909/3012 16008KT 9999 FEW030
BECMG 2913/2915 35010KT
BECMG 3003/3006 10008KT
BECMG 3006/3009 01008KT
日本時間29日18-22時:160度から8ノットの風
22-24時:風が変化
30日00-12時:350度から10ノットの風
12-15時:風が変化
15時:100度から8ノットの風
15-18時:風が変化
18-21時:010度から8ノットの風


那覇空港
TAF ROAH 290836Z 2909/3012 36007KT 9999 SCT020 BKN040
BECMG 3006/3009 36017KT
日本時間29日18時-30日15時:360度から7ノットの風
15-18時:風が変化
18-21時:360度から17ノットの風


マウイのカフルイ空港
PHOG 291128Z 2912/3012 05008KT P6SM VCSH SCT050 BKN250
FM292100 05012KT P6SM SCT050 BKN250
FM300500 05008KT P6SM SCT050 SCT250
ハワイ時間29日02-11時:050度から8ノットの風
11-19時:050度から12ノットの風

19時-30日02時:050度から8ノットの風


サイパン空港
PGSN 291120Z 2912/3012 07012G18KT P6SM VCSH FEW025
マリアナ時間28日22時-29日22時:070度から12ノット、突風18ノット

コメント

12/27-28の航空気象通報(国内、海外)

2008年12月28日 18時24分14秒 | TAF
羽田空港
TAF RJTT 280837Z 2809/2912 36014KT 9999 FEW030
BECMG 2903/2906 10010KT
日本時間28日18時-29日12時:360度から14ノットの風
12-15時:風が変化
15-21時:100度から10ノットの風


那覇空港
TAF ROAH 280838Z 2809/2912 15006KT 9999 FEW030
BECMG 2903/2906 35012KT
TEMPO 2903/2906 4000 SHRA
日本時間28日18時-29日12時:150度から6ノットの風
12-15時:風が変化
15-21時:350度から12ノットの風

但し、29日12-15時の間:一時、
コメント

12/27-28の航空気象通報(国内、海外)

2008年12月27日 20時25分45秒 | TAF
羽田空港
TAF RJTT 270851Z 2709/2812 32008KT 9999 FEW030
BECMG 2800/2803 20008KT
BECMG 2806/2809 32009KT
日本時間27日18時-28日09時:320度から8ノットの風
09-12時:風が変化
12-15時:200度から8ノットの風
15-18時:風が変化
18-21時:320度から9ノットの風


那覇空港
TAF ROAH 270837Z 2709/2812 06005KT 9999 FEW030 SCT045
BECMG 2800/2803 11008KT
日本時間27日18時-28日09時:060度から5ノットの風
09-12時:風が変化
12-21時:110度から8ノットの風


マウイのカフルイ空港
TAFPA TAF PHOG 271206Z 2712/2812 04010KT P6SM VCSH SCT025 BKN050
FM272100 05010G20KT P6SM VCSH SCT025 BKN050
ハワイ時間27日02-11時:040度から10ノットの風
11時-28日02時:050度から10ノット、突風20ノット


サイパン空港
PGSN 271120Z 2712/2812 07011KT P6SM VCSH SCT022
マリアナ時間27日22時-28日21時:070度から11ノットの風
コメント